createdAt,value
2022-08-11T09:14:54.905Z,0.10
2022-08-11T09:20:41.261Z,0.28
2022-08-11T09:24:06.692Z,0.63
2022-08-11T09:27:01.258Z,0.10
2022-08-11T09:42:00.441Z,0.15
2022-08-11T09:56:43.603Z,0.30
2022-08-11T10:05:38.264Z,0.55
2022-08-11T10:29:45.156Z,0.47
2022-08-11T10:33:02.582Z,0.43
2022-08-11T10:35:55.952Z,0.32
2022-08-11T10:38:43.495Z,0.20
2022-08-11T10:42:06.712Z,0.30
2022-08-11T10:44:57.150Z,0.20
2022-08-11T10:47:48.996Z,0.15
2022-08-11T10:50:56.700Z,0.20
2022-08-11T10:54:04.309Z,0.10
2022-08-11T10:57:12.913Z,0.10
2022-08-11T11:00:03.317Z,0.10
2022-08-11T11:03:16.798Z,0.20
2022-08-11T11:06:28.307Z,0.20
2022-08-11T11:09:24.480Z,0.30
2022-08-11T11:12:34.019Z,0.17
2022-08-11T11:18:38.862Z,0.30
2022-08-11T11:21:26.451Z,0.10
2022-08-11T11:24:14.027Z,0.35
2022-08-11T11:27:07.954Z,0.65
2022-08-11T11:30:00.278Z,0.20
2022-08-11T11:32:49.796Z,0.10
2022-08-11T11:35:56.241Z,0.20
2022-08-11T11:38:44.729Z,0.28
2022-08-11T11:41:32.341Z,0.30
2022-08-11T11:44:27.025Z,0.40
2022-08-11T11:47:16.549Z,0.30
2022-08-11T11:50:04.835Z,0.20
2022-08-11T11:52:53.595Z,0.25
2022-08-11T11:55:43.363Z,0.35
2022-08-11T11:58:52.312Z,0.10
2022-08-11T12:01:40.843Z,0.32
2022-08-11T12:10:38.201Z,0.32
2022-08-11T12:19:28.856Z,0.20
2022-08-11T12:26:09.991Z,0.30
2022-08-11T12:29:01.455Z,0.30
2022-08-11T12:31:51.934Z,0.20
2022-08-11T12:34:42.630Z,0.20
2022-08-11T12:37:35.657Z,0.25
2022-08-11T12:40:56.473Z,0.32
2022-08-11T12:44:10.075Z,0.20
2022-08-11T12:46:59.250Z,0.40
2022-08-11T12:50:22.714Z,0.30
2022-08-11T12:53:14.238Z,0.00
2022-08-11T12:56:23.414Z,0.10
2022-08-11T12:59:29.452Z,0.25
2022-08-11T13:02:44.429Z,0.40
2022-08-11T13:05:35.813Z,0.30
2022-08-11T13:08:42.803Z,0.30
2022-08-11T13:11:55.663Z,0.10
2022-08-11T13:14:49.806Z,0.20
2022-08-11T13:17:43.835Z,0.22
2022-08-11T13:20:32.144Z,0.30
2022-08-11T13:23:20.444Z,0.30
2022-08-11T13:26:11.003Z,0.10
2022-08-11T13:28:58.714Z,0.28
2022-08-11T13:31:46.546Z,0.35
2022-08-11T13:34:36.325Z,0.30
2022-08-11T13:38:27.280Z,0.63
2022-08-11T13:40:54.759Z,0.40
2022-08-11T13:43:42.351Z,0.30
2022-08-11T13:46:30.182Z,0.30
2022-08-11T13:49:19.640Z,0.20
2022-08-11T13:52:08.363Z,0.38
2022-08-11T13:54:55.813Z,0.52
2022-08-11T13:58:09.171Z,0.17
2022-08-11T14:00:58.110Z,0.65
2022-08-11T14:04:31.153Z,0.10
2022-08-11T14:06:55.052Z,0.38
2022-08-11T14:09:46.867Z,0.30
2022-08-11T14:13:06.899Z,0.20
2022-08-11T14:15:57.509Z,0.20
2022-08-11T14:18:46.214Z,0.30
2022-08-11T14:21:56.686Z,0.30
2022-08-11T14:24:51.882Z,0.40
2022-08-11T14:28:29.425Z,0.28
2022-08-11T14:31:01.145Z,0.10
2022-08-11T14:33:59.799Z,0.20
2022-08-11T14:36:53.355Z,0.38
2022-08-11T14:39:47.315Z,0.30
2022-08-11T14:42:53.640Z,0.52
2022-08-11T14:45:59.564Z,0.17
2022-08-11T14:48:47.447Z,0.32
2022-08-11T14:51:35.215Z,0.25
2022-08-11T14:54:47.399Z,0.50
2022-08-11T14:57:56.245Z,0.25
2022-08-11T15:00:44.850Z,0.50
2022-08-11T15:03:33.916Z,0.20
2022-08-11T15:06:21.543Z,0.40
2022-08-11T15:09:12.099Z,0.32
2022-08-11T15:12:33.014Z,0.20
2022-08-11T15:15:35.850Z,0.30
2022-08-11T15:18:26.831Z,0.30
2022-08-11T15:21:32.582Z,0.20
2022-08-11T15:24:20.069Z,0.20
2022-08-11T15:27:30.377Z,0.30
2022-08-11T15:30:36.780Z,0.30
2022-08-11T15:33:45.976Z,0.30
2022-08-11T15:36:53.498Z,0.50
2022-08-11T15:40:31.343Z,0.55
2022-08-11T15:43:43.895Z,0.30
2022-08-11T15:46:40.441Z,0.73
2022-08-11T15:50:10.509Z,0.45
2022-08-11T15:53:06.288Z,0.32
2022-08-11T15:55:54.912Z,0.52
2022-08-11T15:59:40.565Z,0.40
2022-08-11T16:02:32.513Z,0.43
2022-08-11T16:05:46.014Z,0.30
2022-08-11T16:08:33.232Z,0.63
2022-08-11T16:11:21.886Z,0.32
2022-08-11T16:14:29.391Z,0.45
2022-08-11T16:17:17.724Z,0.40
2022-08-11T16:20:06.240Z,0.30
2022-08-11T16:23:01.757Z,1.17
2022-08-11T16:29:01.050Z,0.70
2022-08-11T16:38:26.739Z,0.50
2022-08-11T16:44:44.884Z,0.50
2022-08-11T16:50:41.521Z,0.50
2022-08-11T16:54:03.593Z,0.60
2022-08-11T16:56:50.638Z,0.35
2022-08-11T16:59:38.747Z,0.40
2022-08-11T17:06:02.852Z,0.28
2022-08-11T17:09:10.169Z,0.60
2022-08-11T17:12:17.358Z,0.50
2022-08-11T17:18:37.196Z,0.57
2022-08-11T17:21:58.999Z,0.90
2022-08-11T17:58:16.905Z,0.60
2022-08-11T18:01:09.141Z,0.43
2022-08-11T18:03:58.412Z,0.43
2022-08-11T18:06:46.949Z,0.88
2022-08-11T18:16:06.673Z,1.48
2022-08-11T18:57:37.351Z,0.68
2022-08-11T19:13:46.615Z,0.80
2022-08-11T19:16:54.504Z,0.68
2022-08-11T19:33:05.211Z,0.68
2022-08-11T19:36:11.200Z,0.80
2022-08-11T20:07:35.206Z,0.60
2022-08-11T20:10:41.727Z,0.55
2022-08-11T20:39:07.371Z,0.52
2022-08-11T20:45:24.180Z,0.60
2022-08-11T20:48:30.882Z,0.63
2022-08-11T20:54:45.793Z,0.77
2022-08-11T20:58:03.982Z,0.63
2022-08-11T21:07:33.592Z,0.88
2022-08-11T21:33:17.607Z,1.02
2022-08-11T22:14:05.676Z,0.70
2022-08-11T22:55:01.754Z,1.33
2022-08-11T23:01:23.821Z,2.05
2022-08-11T23:20:27.690Z,1.70
2022-08-11T23:23:37.621Z,1.30
2022-08-11T23:42:46.685Z,1.35
